Time;durP1;ratioP1;P1;durP2;ratioP2;P2;SDS_P1;SDS_P2;PMS_P1;PMS_P2;Temp;Humidity;BMP_temperature;BMP_pressure;BME280_temperature;BME280_humidity;BME280_pressure;Samples;Min_cycle;Max_cycle;Signal;HPM_P1;HPM_P2
2022/03/29 00:00:39;;;;;;;2.65;1.50;;;-7.80;99.90;;;;;;4975485;28;20098;-75
2022/03/29 00:03:08;;;;;;;1.83;1.40;;;-7.90;99.90;;;;;;4956550;28;20477;-74
2022/03/29 00:05:35;;;;;;;1.20;1.13;;;-7.90;99.90;;;;;;4956878;29;20071;-74
2022/03/29 00:08:02;;;;;;;1.60;1.50;;;-7.90;99.90;;;;;;4956823;28;20031;-75
2022/03/29 00:10:28;;;;;;;1.77;1.30;;;-7.90;99.90;;;;;;4956942;28;20102;-74
2022/03/29 00:12:54;;;;;;;1.67;1.38;;;-8.00;99.90;;;;;;4957001;28;20030;-75
2022/03/29 00:15:23;;;;;;;1.48;1.38;;;-8.00;99.90;;;;;;4956619;28;20114;-72
2022/03/29 00:17:49;;;;;;;1.92;1.45;;;-8.00;99.90;;;;;;4956680;28;20118;-78
2022/03/29 00:20:17;;;;;;;1.40;1.30;;;-8.10;99.90;;;;;;4956551;29;20035;-75
2022/03/29 00:22:42;;;;;;;1.38;1.27;;;-8.10;99.90;;;;;;4956281;28;20039;-75
2022/03/29 00:25:10;;;;;;;2.75;1.35;;;-8.10;99.90;;;;;;4956623;28;20089;-75
2022/03/29 00:27:36;;;;;;;2.08;1.20;;;-8.10;99.90;;;;;;4956204;28;20019;-76
2022/03/29 00:30:07;;;;;;;1.40;1.30;;;-8.10;99.90;;;;;;4956671;28;20041;-75
2022/03/29 00:32:34;;;;;;;1.42;1.33;;;-8.20;99.90;;;;;;4955616;28;20034;-75
2022/03/29 00:35:00;;;;;;;1.42;1.33;;;-8.30;99.90;;;;;;4956102;28;20534;-75
2022/03/29 00:37:26;;;;;;;1.10;1.00;;;-8.30;99.90;;;;;;4956310;28;20083;-74
2022/03/29 00:39:52;;;;;;;2.78;1.33;;;-8.50;99.90;;;;;;4955987;29;20085;-73
2022/03/29 00:42:17;;;;;;;3.90;1.33;;;-8.50;99.90;;;;;;4956075;29;20775;-73
2022/03/29 00:44:43;;;;;;;1.40;1.30;;;-8.60;99.90;;;;;;4956007;29;20296;-73
2022/03/29 00:47:09;;;;;;;2.50;1.40;;;-8.60;99.90;;;;;;4956169;29;20039;-73
2022/03/29 00:49:35;;;;;;;4.45;1.40;;;-8.60;99.90;;;;;;4956154;28;20123;-73
2022/03/29 00:52:04;;;;;;;3.00;1.65;;;-8.50;99.90;;;;;;4955876;29;20558;-74
2022/03/29 00:54:41;;;;;;;1.70;1.60;;;-8.40;99.90;;;;;;4956075;28;20394;-74
2022/03/29 00:57:07;;;;;;;2.35;1.40;;;-8.40;99.90;;;;;;4955756;28;20475;-74
2022/03/29 00:59:33;;;;;;;1.45;1.35;;;-8.40;99.90;;;;;;4955549;29;20027;-74
2022/03/29 01:02:00;;;;;;;3.78;1.40;;;-8.40;99.90;;;;;;4955634;29;20130;-72
2022/03/29 01:04:26;;;;;;;2.40;1.50;;;-8.50;99.90;;;;;;4955767;28;20034;-72
2022/03/29 01:06:53;;;;;;;5.07;1.40;;;-8.50;99.90;;;;;;4955940;28;20042;-72
2022/03/29 01:09:19;;;;;;;1.20;1.20;;;-8.60;99.90;;;;;;4955854;28;20111;-72
2022/03/29 01:11:49;;;;;;;1.55;1.45;;;-8.50;99.90;;;;;;4955495;28;20027;-72
2022/03/29 01:14:15;;;;;;;2.67;1.58;;;-8.50;99.90;;;;;;4955539;28;20537;-72
2022/03/29 01:19:25;;;;;;;2.55;1.42;;;-8.50;99.90;;;;;;4955847;29;20031;-72
2022/03/29 01:21:57;;;;;;;3.10;1.38;;;-8.50;99.90;;;;;;4955835;28;20055;-72
2022/03/29 01:24:25;;;;;;;1.45;1.35;;;-8.50;99.90;;;;;;4955663;28;20031;-72
2022/03/29 01:26:53;;;;;;;1.35;1.30;;;-8.60;99.90;;;;;;4955363;28;20043;-72
2022/03/29 01:29:20;;;;;;;1.50;1.40;;;-8.80;99.90;;;;;;4955603;28;20031;-72
2022/03/29 01:31:48;;;;;;;1.20;1.10;;;-8.80;99.90;;;;;;4955084;28;20070;-72
2022/03/29 01:34:14;;;;;;;1.67;1.52;;;-8.80;99.90;;;;;;4955106;28;20019;-73
2022/03/29 01:36:40;;;;;;;2.30;1.52;;;-8.80;99.90;;;;;;4954985;28;20411;-73
2022/03/29 01:39:05;;;;;;;1.42;1.33;;;-8.80;99.90;;;;;;4954972;28;20055;-73
2022/03/29 01:41:31;;;;;;;1.40;1.30;;;-8.80;99.90;;;;;;4954833;29;20024;-72
2022/03/29 01:43:57;;;;;;;1.67;1.42;;;-8.80;99.90;;;;;;4953897;28;20038;-73
2022/03/29 01:46:23;;;;;;;1.83;1.38;;;-8.90;99.90;;;;;;4954822;28;20419;-72
2022/03/29 01:48:50;;;;;;;2.83;1.50;;;-8.90;99.90;;;;;;4954935;29;20027;-73
2022/03/29 01:51:16;;;;;;;1.50;1.40;;;-8.90;99.90;;;;;;4955067;28;20032;-72
2022/03/29 01:53:42;;;;;;;2.63;1.58;;;-9.00;99.90;;;;;;4954859;29;20028;-73
2022/03/29 01:56:08;;;;;;;1.45;1.40;;;-9.00;99.90;;;;;;4954664;28;20031;-71
2022/03/29 01:58:33;;;;;;;1.40;1.30;;;-9.00;99.90;;;;;;4954379;29;20078;-74
2022/03/29 02:01:00;;;;;;;2.67;1.30;;;-9.00;99.90;;;;;;4954674;29;20031;-74
2022/03/29 02:03:25;;;;;;;1.88;1.40;;;-9.00;99.90;;;;;;4954811;29;20023;-74
2022/03/29 02:05:51;;;;;;;1.60;1.50;;;-9.00;99.90;;;;;;4954474;28;20238;-75
2022/03/29 02:08:17;;;;;;;2.17;1.35;;;-9.10;99.90;;;;;;4954499;29;20027;-75
2022/03/29 02:10:43;;;;;;;2.97;1.60;;;-9.10;99.90;;;;;;4954697;28;20027;-74
2022/03/29 02:13:09;;;;;;;1.52;1.42;;;-9.10;99.90;;;;;;4954459;28;20027;-74
2022/03/29 02:15:37;;;;;;;1.40;1.30;;;-9.20;99.90;;;;;;4954514;28;20087;-74
2022/03/29 02:18:03;;;;;;;2.22;1.40;;;-9.20;99.90;;;;;;4954642;28;20031;-74
2022/03/29 02:20:29;;;;;;;1.52;1.42;;;-9.30;99.90;;;;;;4954585;29;20093;-77
2022/03/29 02:22:55;;;;;;;7.60;1.60;;;-9.30;99.90;;;;;;4954284;29;20027;-74
2022/03/29 02:56:51;;;;;;;1.40;1.30;;;-9.70;99.90;;;;;;4953933;29;20054;-74
2022/03/29 02:59:17;;;;;;;1.50;1.40;;;-9.70;99.90;;;;;;4953866;28;20032;-74
2022/03/29 03:01:43;;;;;;;3.10;1.25;;;-9.80;99.90;;;;;;4953819;28;20035;-74
2022/03/29 03:37:49;;;;;;;1.42;1.42;;;-10.40;99.90;;;;;;5478923;23;20096;-64
2022/03/29 03:40:14;;;;;;;1.30;1.20;;;-10.40;99.90;;;;;;4953293;29;20474;-64
2022/03/29 03:42:40;;;;;;;1.27;1.25;;;-10.40;99.90;;;;;;4953475;29;20027;-65
2022/03/29 03:45:07;;;;;;;1.52;1.40;;;-10.40;99.90;;;;;;4953322;29;20405;-65
2022/03/29 03:47:33;;;;;;;1.60;1.30;;;-10.40;99.90;;;;;;4953421;29;20107;-65
2022/03/29 03:50:00;;;;;;;5.93;1.70;;;-10.50;99.90;;;;;;4953459;29;20035;-65
2022/03/29 03:52:26;;;;;;;2.08;1.50;;;-10.50;99.90;;;;;;4953313;29;20035;-65
2022/03/29 03:54:54;;;;;;;1.70;1.60;;;-10.50;99.90;;;;;;4953303;29;20046;-65
2022/03/29 03:57:20;;;;;;;2.20;1.50;;;-10.50;99.90;;;;;;4935933;29;20038;-65
2022/03/29 03:59:48;;;;;;;1.95;1.45;;;-10.50;99.90;;;;;;4953566;29;20035;-65
2022/03/29 04:02:14;;;;;;;2.13;1.58;;;-10.50;99.90;;;;;;4953280;29;20030;-65
2022/03/29 04:04:40;;;;;;;1.60;1.50;;;-10.50;99.90;;;;;;4953390;29;20030;-65
2022/03/29 04:07:06;;;;;;;1.90;1.80;;;-10.50;99.90;;;;;;4954447;28;20023;-65
2022/03/29 04:09:35;;;;;;;1.85;1.27;;;-10.50;99.90;;;;;;4957030;29;20550;-65
2022/03/29 04:12:03;;;;;;;1.70;1.60;;;-10.60;99.90;;;;;;4956805;29;20035;-65
2022/03/29 04:14:28;;;;;;;1.45;1.35;;;-10.70;99.90;;;;;;4939580;29;20027;-65
2022/03/29 04:16:54;;;;;;;1.60;1.50;;;-10.70;99.90;;;;;;4956668;29;20046;-65
2022/03/29 04:19:20;;;;;;;1.42;1.33;;;-10.70;99.90;;;;;;4956654;29;20053;-65
2022/03/29 04:21:46;;;;;;;1.55;1.45;;;-10.70;99.90;;;;;;4956723;29;20442;-65
2022/03/29 04:24:12;;;;;;;3.03;1.63;;;-10.70;99.90;;;;;;4956328;29;20086;-65
2022/03/29 04:26:38;;;;;;;2.08;1.70;;;-10.80;99.90;;;;;;4956304;29;20030;-65
2022/03/29 04:29:04;;;;;;;1.55;1.45;;;-10.80;99.90;;;;;;4939042;29;20028;-65
2022/03/29 04:31:30;;;;;;;1.77;1.23;;;-10.80;99.90;;;;;;4956008;29;20110;-63
2022/03/29 04:33:58;;;;;;;1.75;1.45;;;-10.80;99.90;;;;;;4956180;29;20024;-63
2022/03/29 04:36:24;;;;;;;2.08;1.60;;;-10.80;99.90;;;;;;4955913;29;20486;-67
2022/03/29 04:38:50;;;;;;;1.30;1.30;;;-10.80;99.90;;;;;;4955741;29;20059;-68
2022/03/29 04:41:16;;;;;;;1.42;1.33;;;-10.80;99.90;;;;;;4955937;29;20027;-65
2022/03/29 04:43:42;;;;;;;1.55;1.45;;;-10.50;99.90;;;;;;4962506;28;20402;-65
2022/03/29 04:46:08;;;;;;;1.75;1.40;;;-10.10;99.90;;;;;;4973089;28;20106;-66
2022/03/29 04:48:34;;;;;;;2.35;1.80;;;-10.30;99.90;;;;;;4938379;29;20038;-64
2022/03/29 04:51:00;;;;;;;1.27;1.27;;;-10.50;99.90;;;;;;4969204;28;20069;-65
2022/03/29 04:53:26;;;;;;;2.33;1.67;;;-10.70;99.90;;;;;;4974360;28;20482;-65
2022/03/29 04:55:51;;;;;;;1.50;1.40;;;-10.80;99.90;;;;;;4974615;28;20489;-66
2022/03/29 04:58:17;;;;;;;1.80;1.52;;;-10.80;99.90;;;;;;4973889;28;20030;-67
2022/03/29 05:00:43;;;;;;;1.70;1.60;;;-10.80;99.90;;;;;;4956595;28;20479;-66
2022/03/29 05:03:09;;;;;;;3.42;1.33;;;-10.80;99.90;;;;;;4973610;28;20483;-67
2022/03/29 05:05:35;;;;;;;3.88;1.60;;;-10.80;99.90;;;;;;4972563;28;20030;-65
2022/03/29 05:08:00;;;;;;;3.67;1.50;;;-10.70;99.90;;;;;;4974135;28;20026;-66
2022/03/29 05:10:26;;;;;;;1.60;1.50;;;-10.70;99.90;;;;;;4974112;28;20062;-66
2022/03/29 05:12:52;;;;;;;2.05;1.40;;;-10.70;99.90;;;;;;4963970;28;20509;-66
2022/03/29 05:15:19;;;;;;;1.75;1.65;;;-10.60;99.90;;;;;;4968443;28;20034;-66
2022/03/29 05:17:46;;;;;;;6.18;1.50;;;-10.60;99.90;;;;;;4973901;28;20382;-66
2022/03/29 05:20:14;;;;;;;1.10;1.10;;;-10.60;99.90;;;;;;4973615;28;20205;-66
2022/03/29 05:22:43;;;;;;;2.03;1.50;;;-10.50;99.90;;;;;;4973945;28;20019;-66
2022/03/29 05:25:09;;;;;;;3.25;1.88;;;-10.50;99.90;;;;;;4974585;28;20034;-66
2022/03/29 05:27:36;;;;;;;1.67;1.58;;;-10.40;99.90;;;;;;4974662;28;20483;-65
2022/03/29 05:30:02;;;;;;;2.08;1.77;;;-10.20;99.90;;;;;;4974533;28;20449;-66
2022/03/29 05:32:28;;;;;;;2.22;1.48;;;-10.00;99.90;;;;;;4971276;28;20023;-65
2022/03/29 05:34:54;;;;;;;3.35;1.52;;;-10.00;99.90;;;;;;4955439;29;20039;-66
2022/03/29 05:37:19;;;;;;;1.65;1.55;;;-9.80;99.90;;;;;;4954863;28;20498;-66
2022/03/29 05:39:45;;;;;;;1.67;1.58;;;-9.50;99.90;;;;;;4955210;29;20038;-66
2022/03/29 05:42:11;;;;;;;1.60;1.50;;;-9.20;99.90;;;;;;4954998;29;20474;-66
2022/03/29 05:44:37;;;;;;;2.42;1.77;;;-8.60;99.90;;;;;;4968264;28;20077;-66
2022/03/29 05:49:48;;;;;;;2.67;1.40;;;-7.80;99.70;;;;;;4974371;28;20084;-66
2022/03/29 05:52:14;;;;;;;6.97;1.48;;;-7.20;97.60;;;;;;4974028;28;20027;-66
2022/03/29 05:54:41;;;;;;;1.30;1.20;;;-6.90;94.90;;;;;;4973835;28;20030;-65
2022/03/29 05:57:07;;;;;;;1.70;1.40;;;-6.70;94.00;;;;;;4956490;28;20034;-65
2022/03/29 05:59:34;;;;;;;1.60;1.50;;;-6.20;92.90;;;;;;4973675;28;20478;-65
2022/03/29 06:02:04;;;;;;;1.40;1.30;;;-6.00;91.50;;;;;;4973913;28;20035;-66
2022/03/29 06:04:31;;;;;;;1.45;1.33;;;-5.60;90.90;;;;;;4973612;28;20023;-66
2022/03/29 06:06:57;;;;;;;3.38;1.63;;;-5.20;90.50;;;;;;4973863;28;20367;-66
2022/03/29 06:09:23;;;;;;;1.90;1.38;;;-4.80;88.80;;;;;;4973876;28;20030;-65
2022/03/29 06:11:49;;;;;;;1.40;1.33;;;-4.10;99.90;;;;;;4974081;28;20034;-66
2022/03/29 06:14:15;;;;;;;3.30;1.30;;;-3.70;93.40;;;;;;4973731;28;20035;-66
2022/03/29 06:16:42;;;;;;;2.15;1.27;;;-3.60;86.70;;;;;;4973490;28;20042;-66
2022/03/29 06:19:11;;;;;;;3.60;1.40;;;-3.50;83.80;;;;;;4973494;28;20498;-65
2022/03/29 06:21:39;;;;;;;3.30;1.20;;;-3.50;81.60;;;;;;4974038;28;20058;-65
2022/03/29 06:24:06;;;;;;;1.33;1.10;;;-3.50;81.50;;;;;;4973756;28;20026;-66
2022/03/29 06:26:32;;;;;;;1.25;1.15;;;-3.40;79.80;;;;;;4973348;28;20038;-66
2022/03/29 06:28:58;;;;;;;2.08;1.00;;;-3.40;79.60;;;;;;4973262;28;20031;-65
2022/03/29 06:31:24;;;;;;;1.20;1.10;;;-3.40;79.30;;;;;;4972934;28;20540;-66
2022/03/29 06:33:50;;;;;;;1.30;1.20;;;-3.50;78.30;;;;;;4956084;28;20035;-65
2022/03/29 06:36:17;;;;;;;1.92;1.20;;;-3.40;79.40;;;;;;4973519;28;20573;-64
2022/03/29 06:38:44;;;;;;;1.42;1.13;;;-3.20;78.80;;;;;;4973053;28;20050;-64
2022/03/29 06:41:13;;;;;;;1.27;1.05;;;-3.00;77.90;;;;;;4972418;28;20085;-64
2022/03/29 06:43:39;;;;;;;1.98;1.10;;;-3.00;76.60;;;;;;4972973;28;20031;-64
2022/03/29 06:46:07;;;;;;;2.10;1.10;;;-2.90;90.20;;;;;;4973138;28;20030;-65
2022/03/29 06:48:33;;;;;;;2.75;1.50;;;-2.60;85.50;;;;;;4972808;28;20562;-64
2022/03/29 06:50:59;;;;;;;1.40;1.30;;;-2.60;82.50;;;;;;4972925;28;20105;-66
2022/03/29 06:53:25;;;;;;;2.50;1.08;;;-2.60;80.00;;;;;;4972073;28;20030;-65
2022/03/29 06:55:51;;;;;;;2.97;1.10;;;-2.50;78.40;;;;;;4972138;28;20043;-65
2022/03/29 06:58:18;;;;;;;0.90;0.90;;;-2.50;76.90;;;;;;4972624;28;20019;-65
2022/03/29 07:00:44;;;;;;;1.17;1.10;;;-2.40;76.60;;;;;;4973250;28;20034;-65
2022/03/29 07:03:10;;;;;;;4.10;1.48;;;-2.30;75.70;;;;;;4972773;28;20445;-65
2022/03/29 07:05:38;;;;;;;1.33;1.25;;;-2.40;74.60;;;;;;4972753;28;20034;-65
2022/03/29 07:08:10;;;;;;;2.15;1.20;;;-2.50;74.90;;;;;;4973005;28;20051;-65
2022/03/29 07:13:23;;;;;;;1.42;1.30;;;-2.30;74.90;;;;;;4973010;28;20037;-65
2022/03/29 07:15:50;;;;;;;30.30;16.25;;;-2.40;73.90;;;;;;4972882;28;20031;-69
2022/03/29 07:18:16;;;;;;;4.80;2.30;;;-2.30;74.50;;;;;;4971994;28;20077;-65
2022/03/29 07:20:42;;;;;;;2.95;2.30;;;-2.20;74.20;;;;;;4972464;28;20500;-65
2022/03/29 07:23:08;;;;;;;3.08;2.75;;;-2.20;74.10;;;;;;4971478;28;20026;-66
2022/03/29 07:25:34;;;;;;;3.05;1.88;;;-2.30;73.20;;;;;;4971069;28;20023;-65
2022/03/29 07:28:01;;;;;;;3.90;2.30;;;-2.40;73.10;;;;;;4972434;28;20034;-66
2022/03/29 07:30:28;;;;;;;2.25;1.20;;;-2.30;73.90;;;;;;4971944;28;20085;-66
2022/03/29 07:32:56;;;;;;;1.20;1.10;;;-2.40;73.60;;;;;;4972538;28;20022;-67
2022/03/29 07:35:24;;;;;;;1.60;1.30;;;-2.70;73.60;;;;;;4972186;28;20034;-67
2022/03/29 07:37:50;;;;;;;1.33;1.23;;;-2.80;74.30;;;;;;4972309;28;20050;-67
2022/03/29 07:40:18;;;;;;;2.10;1.73;;;-2.80;74.50;;;;;;4966850;28;20062;-66
2022/03/29 07:42:44;;;;;;;1.67;1.45;;;-2.80;74.70;;;;;;4975585;28;20031;-66
2022/03/29 07:45:11;;;;;;;1.65;1.08;;;-2.80;74.50;;;;;;4975683;28;20038;-64
2022/03/29 07:47:38;;;;;;;1.55;1.40;;;-2.90;74.80;;;;;;4973477;28;20063;-65
2022/03/29 07:50:07;;;;;;;4.47;2.13;;;-2.30;99.90;;;;;;4976552;28;20027;-66
2022/03/29 07:52:37;;;;;;;3.73;2.60;;;-1.40;99.90;;;;;;4976170;28;20069;-63
2022/03/29 07:55:05;;;;;;;2.42;1.92;;;1.20;99.90;;;;;;4975853;28;20027;-63
2022/03/29 07:57:30;;;;;;;3.92;1.30;;;0.90;88.40;;;;;;4972806;28;20027;-63
2022/03/29 07:59:56;;;;;;;1.00;0.90;;;-0.20;75.90;;;;;;4975539;28;20027;-63
2022/03/29 08:02:22;;;;;;;1.10;1.10;;;-0.80;74.80;;;;;;4972913;28;20042;-66
2022/03/29 08:04:48;;;;;;;1.30;1.10;;;-1.20;75.00;;;;;;4975987;28;20022;-66
2022/03/29 08:07:14;;;;;;;1.45;0.90;;;-1.40;74.60;;;;;;4975992;28;20030;-66
2022/03/29 08:09:40;;;;;;;4.25;1.38;;;-1.60;75.10;;;;;;4975739;28;20054;-64
2022/03/29 08:12:07;;;;;;;1.20;1.10;;;-1.70;75.20;;;;;;4975990;28;20027;-65
2022/03/29 08:14:32;;;;;;;1.52;0.95;;;-1.70;75.30;;;;;;4975774;28;20027;-64
2022/03/29 08:16:58;;;;;;;1.10;1.00;;;-1.80;75.00;;;;;;4975486;28;20033;-65
2022/03/29 08:19:24;;;;;;;1.27;1.10;;;-1.90;74.50;;;;;;4975530;28;20450;-65
2022/03/29 08:21:52;;;;;;;1.63;1.00;;;-1.90;75.50;;;;;;4975938;28;20066;-64
2022/03/29 08:24:23;;;;;;;1.80;0.98;;;-1.80;76.00;;;;;;4975750;28;20030;-65
2022/03/29 08:26:51;;;;;;;5.05;1.20;;;-1.80;75.40;;;;;;4975630;28;20037;-65
2022/03/29 08:29:18;;;;;;;1.65;1.20;;;-1.70;76.20;;;;;;4975504;28;20114;-64
2022/03/29 08:31:47;;;;;;;1.40;1.25;;;-1.60;75.90;;;;;;4975383;28;20402;-65
2022/03/29 08:34:13;;;;;;;1.50;0.90;;;-1.60;75.40;;;;;;4975318;28;20030;-65
2022/03/29 08:36:40;;;;;;;2.17;1.27;;;-1.50;75.50;;;;;;4975013;28;20035;-65
2022/03/29 08:39:10;;;;;;;2.58;0.80;;;-1.60;75.00;;;;;;4975472;28;20543;-65
2022/03/29 08:42:02;;;;;;;1.58;1.00;;;-1.60;75.10;;;;;;4975284;28;20569;-65
2022/03/29 08:44:30;;;;;;;1.08;0.93;;;-1.60;75.10;;;;;;4975322;28;20093;-64
2022/03/29 08:46:55;;;;;;;1.20;0.90;;;-1.60;75.10;;;;;;4975576;28;20022;-65
2022/03/29 08:49:22;;;;;;;1.13;1.02;;;-1.50;76.00;;;;;;4975257;28;20613;-65
2022/03/29 08:51:49;;;;;;;2.33;1.05;;;-1.40;75.60;;;;;;4975316;28;20086;-65
2022/03/29 08:54:15;;;;;;;2.03;1.20;;;-1.30;74.70;;;;;;4974327;28;20031;-65
2022/03/29 08:56:40;;;;;;;0.88;0.88;;;-1.20;75.10;;;;;;4975021;28;20045;-65
2022/03/29 08:59:06;;;;;;;1.48;1.10;;;-1.20;74.60;;;;;;4974869;28;20022;-65
2022/03/29 09:01:32;;;;;;;2.78;1.30;;;-1.10;74.80;;;;;;4957459;28;20085;-65
2022/03/29 09:04:15;;;;;;;1.00;1.00;;;-1.20;73.50;;;;;;4974747;28;20406;-66
2022/03/29 09:06:50;;;;;;;1.33;1.00;;;-1.20;74.50;;;;;;4974699;28;20495;-65
2022/03/29 09:09:29;;;;;;;1.13;0.90;;;-1.10;74.00;;;;;;4974819;28;20041;-65
2022/03/29 09:12:09;;;;;;;1.80;1.10;;;-1.10;74.20;;;;;;4974560;28;20478;-66
2022/03/29 09:14:59;;;;;;;1.20;1.10;;;-1.00;74.60;;;;;;4974332;28;20041;-65
2022/03/29 09:17:26;;;;;;;3.60;0.95;;;-0.50;91.10;;;;;;4974096;28;20289;-67
2022/03/29 09:19:52;;;;;;;0.93;0.80;;;0.20;99.90;;;;;;4974332;28;20169;-67
2022/03/29 09:22:42;;;;;;;2.03;1.02;;;0.10;82.70;;;;;;4974231;28;20038;-67
2022/03/29 09:25:10;;;;;;;3.25;1.08;;;-0.30;75.30;;;;;;4962623;28;20401;-67
2022/03/29 09:28:13;;;;;;;0.90;0.90;;;-0.50;75.70;;;;;;4973881;28;20467;-67
2022/03/29 09:30:43;;;;;;;0.80;0.80;;;-0.50;76.70;;;;;;4927213;28;20058;-67
2022/03/29 09:33:16;;;;;;;3.93;1.10;;;-0.60;76.00;;;;;;4954690;29;20490;-67
2022/03/29 09:35:58;;;;;;;2.25;1.00;;;-0.50;76.60;;;;;;4954483;29;20131;-67
2022/03/29 09:38:59;;;;;;;1.08;0.85;;;-0.60;75.10;;;;;;4954584;28;20062;-67
2022/03/29 09:41:28;;;;;;;2.92;1.00;;;-0.60;75.10;;;;;;4932523;29;20383;-66
2022/03/29 09:44:06;;;;;;;2.38;1.00;;;-0.70;75.40;;;;;;4954930;29;20035;-67
2022/03/29 09:46:59;;;;;;;1.20;1.10;;;-0.70;75.80;;;;;;4955024;29;20386;-67
2022/03/29 09:49:26;;;;;;;1.23;0.90;;;0.10;99.90;;;;;;4954878;29;20024;-66
2022/03/29 09:52:23;;;;;;;1.00;0.90;;;0.20;85.30;;;;;;4954595;29;20037;-67
2022/03/29 09:55:28;;;;;;;0.90;0.90;;;0.20;79.90;;;;;;4942924;29;20114;-66
2022/03/29 09:57:59;;;;;;;1.52;0.90;;;0.20;81.50;;;;;;4954312;28;20058;-66
2022/03/29 10:00:24;;;;;;;0.80;0.80;;;0.20;79.70;;;;;;4940552;28;20031;-66
2022/03/29 10:02:51;;;;;;;3.92;0.85;;;0.20;78.70;;;;;;4973939;28;20073;-66
2022/03/29 10:05:19;;;;;;;0.70;0.70;;;0.20;76.90;;;;;;4972895;28;20074;-66
2022/03/29 10:10:43;;;;;;;1.10;0.93;;;0.20;76.60;;;;;;4974092;28;20041;-67
2022/03/29 10:13:10;;;;;;;1.23;0.90;;;0.30;76.00;;;;;;4973538;28;20505;-67
2022/03/29 10:15:41;;;;;;;1.13;0.80;;;0.30;74.70;;;;;;4973648;28;20118;-68
2022/03/29 10:18:07;;;;;;;2.30;1.10;;;0.40;75.80;;;;;;4973499;28;20554;-66
2022/03/29 10:20:34;;;;;;;2.05;0.77;;;0.40;99.90;;;;;;4973565;28;20037;-68
2022/03/29 10:23:00;;;;;;;0.90;0.90;;;0.90;80.10;;;;;;4973539;28;20023;-68
2022/03/29 10:25:27;;;;;;;0.90;0.90;;;0.60;74.40;;;;;;4973142;28;20471;-67
2022/03/29 10:27:58;;;;;;;3.92;1.00;;;0.40;74.40;;;;;;4973462;28;20026;-68
2022/03/29 10:30:41;;;;;;;1.67;0.85;;;0.30;73.90;;;;;;4973332;28;20491;-68
2022/03/29 10:33:16;;;;;;;0.70;0.70;;;0.10;71.80;;;;;;4956333;28;20027;-68
2022/03/29 10:36:09;;;;;;;1.80;0.95;;;0.10;73.30;;;;;;4972984;28;20486;-67
2022/03/29 10:38:46;;;;;;;0.90;0.90;;;0.00;72.50;;;;;;4972972;28;20147;-65
2022/03/29 10:41:44;;;;;;;0.93;0.93;;;-0.10;72.60;;;;;;4973036;28;20058;-70
2022/03/29 10:44:11;;;;;;;2.72;0.90;;;0.90;99.90;;;;;;4957551;28;20046;-68
2022/03/29 10:46:38;;;;;;;0.88;0.85;;;1.10;83.00;;;;;;4973211;28;20382;-66
2022/03/29 10:49:23;;;;;;;2.70;0.90;;;0.90;76.50;;;;;;4955817;28;20359;-66
2022/03/29 10:52:05;;;;;;;0.93;0.70;;;0.80;73.60;;;;;;4973027;28;20061;-66
2022/03/29 10:54:40;;;;;;;1.35;0.80;;;0.70;74.60;;;;;;4973035;28;20026;-66
2022/03/29 10:57:18;;;;;;;1.30;1.00;;;0.60;74.30;;;;;;4973050;28;20138;-66
2022/03/29 10:59:50;;;;;;;1.50;0.90;;;0.50;73.30;;;;;;4972677;28;20027;-66
2022/03/29 11:02:19;;;;;;;0.80;0.80;;;0.50;73.30;;;;;;4971077;28;20025;-66
2022/03/29 11:05:05;;;;;;;2.20;0.80;;;0.40;72.60;;;;;;4972013;28;20062;-66
2022/03/29 11:07:34;;;;;;;1.92;0.70;;;0.40;73.30;;;;;;4955772;28;20019;-66
2022/03/29 11:10:13;;;;;;;0.70;0.70;;;0.50;72.90;;;;;;4973052;28;20034;-66
2022/03/29 11:12:43;;;;;;;1.08;0.77;;;0.50;74.10;;;;;;4973049;28;20034;-66
2022/03/29 11:15:24;;;;;;;3.33;1.00;;;0.50;73.60;;;;;;4972756;28;20113;-66
2022/03/29 11:17:53;;;;;;;;;;;0.50;73.80;;;;;;4959958;28;20031;-67
2022/03/29 11:20:32;;;;;;;0.80;0.80;;;0.70;80.80;;;;;;4976849;28;20008;-66
2022/03/29 11:23:04;;;;;;;0.80;0.80;;;0.70;73.50;;;;;;4976999;28;20165;-66
2022/03/29 11:25:38;;;;;;;0.63;0.63;;;0.50;72.00;;;;;;4976682;28;20105;-66
2022/03/29 11:28:06;;;;;;;0.70;0.70;;;0.40;72.20;;;;;;4976904;28;20027;-66
2022/03/29 11:30:34;;;;;;;0.60;0.60;;;0.40;72.80;;;;;;4976530;28;20034;-66
2022/03/29 11:33:05;;;;;;;2.53;0.90;;;0.30;72.80;;;;;;4976775;28;20073;-66
2022/03/29 11:35:33;;;;;;;2.92;1.00;;;0.40;72.30;;;;;;4976624;28;20093;-68
2022/03/29 11:38:12;;;;;;;2.05;0.80;;;0.60;95.30;;;;;;4976266;28;20074;-68
2022/03/29 11:40:39;;;;;;;1.55;0.73;;;1.00;79.90;;;;;;4976172;28;20035;-67
2022/03/29 11:43:10;;;;;;;3.85;0.85;;;1.00;76.30;;;;;;4958789;28;20027;-68
2022/03/29 11:45:47;;;;;;;2.15;0.80;;;0.90;76.80;;;;;;4958605;28;20046;-68
2022/03/29 11:48:17;;;;;;;2.15;0.80;;;0.90;72.50;;;;;;4976086;28;20030;-68
2022/03/29 11:50:54;;;;;;;0.82;0.82;;;0.80;71.70;;;;;;4975932;28;20035;-67
2022/03/29 11:53:24;;;;;;;1.85;0.80;;;0.80;73.30;;;;;;4975978;28;20027;-67
2022/03/29 11:56:07;;;;;;;4.03;1.20;;;1.00;77.20;;;;;;4968655;28;20031;-68
2022/03/29 11:58:54;;;;;;;0.77;0.70;;;1.00;74.70;;;;;;4956640;29;20038;-68
2022/03/29 12:01:33;;;;;;;2.38;0.80;;;1.00;74.30;;;;;;4956687;29;20436;-67
2022/03/29 12:04:01;;;;;;;1.58;0.90;;;1.00;72.10;;;;;;4956521;29;20020;-67
2022/03/29 12:06:29;;;;;;;0.77;0.75;;;1.20;76.30;;;;;;4956577;29;20072;-67
2022/03/29 12:09:07;;;;;;;3.63;1.02;;;1.10;70.00;;;;;;4956490;29;20378;-67
2022/03/29 12:11:34;;;;;;;0.80;0.80;;;1.00;69.50;;;;;;4956481;29;20023;-67
2022/03/29 12:14:15;;;;;;;0.70;0.70;;;1.00;69.70;;;;;;4956518;29;20037;-68
2022/03/29 12:16:49;;;;;;;2.10;0.90;;;1.00;69.90;;;;;;4956351;29;20055;-67
2022/03/29 12:19:17;;;;;;;1.38;0.75;;;1.40;82.40;;;;;;4956479;29;20023;-67
2022/03/29 12:21:49;;;;;;;0.70;0.70;;;1.50;71.00;;;;;;4956376;29;20078;-67
2022/03/29 12:24:16;;;;;;;3.78;0.90;;;1.20;67.00;;;;;;4956421;29;20023;-67
2022/03/29 12:26:51;;;;;;;1.25;1.00;;;1.10;68.60;;;;;;4956383;29;20019;-68
2022/03/29 12:29:21;;;;;;;1.10;0.70;;;1.80;91.20;;;;;;4955666;29;20023;-68
2022/03/29 12:31:48;;;;;;;0.80;0.80;;;1.90;70.00;;;;;;4956345;29;20019;-67
2022/03/29 12:34:19;;;;;;;2.50;0.82;;;1.60;67.00;;;;;;4939105;29;20513;-69
2022/03/29 12:36:58;;;;;;;1.58;0.90;;;1.40;67.40;;;;;;4956069;28;20039;-68
2022/03/29 12:39:30;;;;;;;2.20;1.00;;;1.20;67.30;;;;;;4956291;29;20483;-67
2022/03/29 12:41:56;;;;;;;1.98;0.80;;;1.20;67.90;;;;;;4956043;29;20041;-66
2022/03/29 12:44:27;;;;;;;2.30;1.00;;;1.20;68.20;;;;;;4955932;29;20027;-67
2022/03/29 12:46:53;;;;;;;0.70;0.70;;;1.30;67.80;;;;;;4938841;29;20417;-67
2022/03/29 12:49:19;;;;;;;1.40;0.90;;;1.20;66.80;;;;;;4954615;29;20114;-67
2022/03/29 12:51:56;;;;;;;1.17;0.70;;;1.20;66.80;;;;;;4955750;29;20039;-67
2022/03/29 12:54:35;;;;;;;4.15;0.90;;;1.20;66.60;;;;;;4955864;29;20031;-67
2022/03/29 12:57:02;;;;;;;2.20;0.80;;;1.20;66.30;;;;;;4955833;29;20371;-68
2022/03/29 12:59:32;;;;;;;1.23;0.90;;;1.30;67.30;;;;;;4955819;29;20019;-67
2022/03/29 13:02:00;;;;;;;1.27;0.90;;;1.30;67.90;;;;;;4956003;29;20031;-67
2022/03/29 13:04:46;;;;;;;0.70;0.70;;;1.40;67.90;;;;;;4965000;28;20019;-68
2022/03/29 13:07:32;;;;;;;3.45;0.93;;;1.40;67.10;;;;;;4974396;28;20540;-67
2022/03/29 13:10:10;;;;;;;1.33;0.90;;;1.50;67.10;;;;;;4971607;28;20022;-66
2022/03/29 13:12:55;;;;;;;2.15;1.00;;;1.50;65.80;;;;;;4968240;28;20035;-66
2022/03/29 13:15:42;;;;;;;1.05;0.80;;;1.50;66.60;;;;;;4971441;28;20541;-65
2022/03/29 13:18:40;;;;;;;0.80;0.80;;;1.60;66.90;;;;;;4970845;28;20023;-65
2022/03/29 13:21:07;;;;;;;1.23;0.90;;;1.70;66.30;;;;;;4970983;28;20027;-66
2022/03/29 13:23:43;;;;;;;0.98;0.80;;;1.70;66.30;;;;;;4972403;28;20050;-66
2022/03/29 13:26:17;;;;;;;1.08;0.90;;;1.70;65.80;;;;;;4969126;28;20023;-66
2022/03/29 13:28:43;;;;;;;1.15;0.90;;;1.70;65.90;;;;;;4973788;28;20050;-65
2022/03/29 13:31:13;;;;;;;1.92;0.93;;;1.60;64.80;;;;;;4973882;28;20023;-66
2022/03/29 13:33:40;;;;;;;0.70;0.70;;;1.60;65.20;;;;;;4974003;28;20023;-66
2022/03/29 13:36:08;;;;;;;1.05;0.63;;;1.60;65.00;;;;;;4973627;28;20026;-66
2022/03/29 13:38:34;;;;;;;1.10;1.00;;;1.70;65.50;;;;;;4973507;28;20122;-66
2022/03/29 13:41:00;;;;;;;1.30;0.90;;;1.60;64.40;;;;;;4973704;28;20082;-66
2022/03/29 13:43:26;;;;;;;1.15;0.80;;;1.60;65.00;;;;;;4973836;28;20030;-66
2022/03/29 13:45:52;;;;;;;3.15;0.73;;;1.60;65.60;;;;;;4973502;28;20037;-66
2022/03/29 13:48:17;;;;;;;0.80;0.80;;;1.60;66.50;;;;;;4973638;28;20471;-66
2022/03/29 13:50:44;;;;;;;2.72;0.70;;;1.60;66.60;;;;;;4973261;28;20027;-66
2022/03/29 13:53:10;;;;;;;1.00;0.80;;;1.50;66.50;;;;;;4973499;28;20077;-66
2022/03/29 13:55:37;;;;;;;1.98;1.23;;;1.50;66.20;;;;;;4973154;28;20023;-66
2022/03/29 13:58:07;;;;;;;3.70;1.00;;;1.50;66.80;;;;;;4970660;28;20486;-66
2022/03/29 14:00:34;;;;;;;0.60;0.60;;;1.50;66.10;;;;;;4968064;28;20394;-66
2022/03/29 14:03:01;;;;;;;1.30;0.70;;;1.40;65.70;;;;;;4950767;28;20031;-66
2022/03/29 14:05:28;;;;;;;0.98;0.90;;;1.40;65.50;;;;;;4965575;28;20026;-66
2022/03/29 14:07:58;;;;;;;1.88;0.90;;;1.40;67.00;;;;;;4965372;28;20027;-66
2022/03/29 14:10:24;;;;;;;0.80;0.80;;;1.50;66.80;;;;;;4965166;28;20026;-67
2022/03/29 14:12:50;;;;;;;2.10;0.95;;;1.50;66.30;;;;;;4953769;28;20023;-66
2022/03/29 14:15:16;;;;;;;1.50;0.85;;;1.50;67.30;;;;;;4972993;28;20081;-66